Terminal Aerodrome Forecast
Issued by NWS

Home | Current Version | Previous Version | Text Only | Print | Product List | Glossary On
Versions: 1 2 3 4 5 6 7 8 9 10 11 12 13 14 15 16 17 18 19 20 21 22 23 24
000
FTUS45 KBOU 201133
TAFAPA
TAF
KAPA 201133Z 2012/2112 18007KT P6SM FEW100 SCT200
     FM201500 24008KT P6SM SCT080 BKN140
     FM201700 35011KT P6SM SCT090 BKN140
     FM202000 02013KT P6SM VCSH SCT080 BKN120 PROB30 2021/2024 -SHRA
      BKN070
     FM210100 33010KT P6SM SCT100 BKN200
     FM210400 28008KT P6SM FEW120 SCT220
     FM211100 35008KT P6SM FEW060 SCT080=

USA.gov is the U.S. government's official web portal to all federal, state and local government web resources and services.